sensor_id;sensor_type;location;lat;lon;timestamp;pressure;altitude;pressure_sealevel;temperature
29423;BMP180;16399;51.686;8.684;2023-02-01T00:00:24;100084.00;;;4.70
29423;BMP180;16399;51.686;8.684;2023-02-01T00:03:26;100068.00;;;4.70
29423;BMP180;16399;51.686;8.684;2023-02-01T00:06:29;100075.00;;;4.60
29423;BMP180;16399;51.686;8.684;2023-02-01T00:09:31;100067.00;;;4.60
29423;BMP180;16399;51.686;8.684;2023-02-01T00:12:33;100055.00;;;4.60
29423;BMP180;16399;51.686;8.684;2023-02-01T00:15:36;100052.00;;;4.60
29423;BMP180;16399;51.686;8.684;2023-02-01T00:18:38;100049.00;;;4.60
29423;BMP180;16399;51.686;8.684;2023-02-01T00:21:41;100040.00;;;4.60
29423;BMP180;16399;51.686;8.684;2023-02-01T00:24:45;100032.00;;;4.60
29423;BMP180;16399;51.686;8.684;2023-02-01T00:27:50;100039.00;;;4.60
29423;BMP180;16399;51.686;8.684;2023-02-01T00:31:00;100024.00;;;4.70
29423;BMP180;16399;51.686;8.684;2023-02-01T00:34:02;100032.00;;;4.70
29423;BMP180;16399;51.686;8.684;2023-02-01T00:37:05;100039.00;;;4.70
29423;BMP180;16399;51.686;8.684;2023-02-01T00:40:08;100041.00;;;4.70
29423;BMP180;16399;51.686;8.684;2023-02-01T00:43:11;100042.00;;;4.70
29423;BMP180;16399;51.686;8.684;2023-02-01T00:46:15;100029.00;;;4.70
29423;BMP180;16399;51.686;8.684;2023-02-01T00:49:17;100025.00;;;4.80
29423;BMP180;16399;51.686;8.684;2023-02-01T00:52:20;100025.00;;;4.80
29423;BMP180;16399;51.686;8.684;2023-02-01T00:55:22;100014.00;;;4.80
29423;BMP180;16399;51.686;8.684;2023-02-01T00:58:25;100014.00;;;4.80
29423;BMP180;16399;51.686;8.684;2023-02-01T01:01:28;100015.00;;;4.90
29423;BMP180;16399;51.686;8.684;2023-02-01T01:04:30;100007.00;;;4.90
29423;BMP180;16399;51.686;8.684;2023-02-01T01:07:32;100011.00;;;4.90
29423;BMP180;16399;51.686;8.684;2023-02-01T01:10:35;100014.00;;;4.90
29423;BMP180;16399;51.686;8.684;2023-02-01T01:13:37;100006.00;;;4.90
29423;BMP180;16399;51.686;8.684;2023-02-01T01:16:39;100004.00;;;4.90
29423;BMP180;16399;51.686;8.684;2023-02-01T01:19:42;100002.00;;;4.90
29423;BMP180;16399;51.686;8.684;2023-02-01T01:22:44;99999.00;;;4.90
29423;BMP180;16399;51.686;8.684;2023-02-01T01:25:46;100010.00;;;4.90
29423;BMP180;16399;51.686;8.684;2023-02-01T01:28:49;100009.00;;;4.90
29423;BMP180;16399;51.686;8.684;2023-02-01T01:31:51;100015.00;;;4.90
29423;BMP180;16399;51.686;8.684;2023-02-01T01:34:53;100016.00;;;4.90
29423;BMP180;16399;51.686;8.684;2023-02-01T01:37:56;100004.00;;;4.90
29423;BMP180;16399;51.686;8.684;2023-02-01T01:40:58;100003.00;;;4.90
29423;BMP180;16399;51.686;8.684;2023-02-01T01:44:03;100013.00;;;5.00
29423;BMP180;16399;51.686;8.684;2023-02-01T01:47:06;100005.00;;;5.00
29423;BMP180;16399;51.686;8.684;2023-02-01T01:50:10;100006.00;;;5.00
29423;BMP180;16399;51.686;8.684;2023-02-01T01:53:16;99996.00;;;5.00
29423;BMP180;16399;51.686;8.684;2023-02-01T01:56:17;99991.00;;;5.10
29423;BMP180;16399;51.686;8.684;2023-02-01T01:59:21;99995.00;;;5.10
29423;BMP180;16399;51.686;8.684;2023-02-01T02:02:24;99991.00;;;5.10
29423;BMP180;16399;51.686;8.684;2023-02-01T02:05:27;99998.00;;;5.20
29423;BMP180;16399;51.686;8.684;2023-02-01T02:08:30;99986.00;;;5.20
29423;BMP180;16399;51.686;8.684;2023-02-01T02:11:33;99979.00;;;5.20
29423;BMP180;16399;51.686;8.684;2023-02-01T02:14:36;99969.00;;;5.30
29423;BMP180;16399;51.686;8.684;2023-02-01T02:17:58;99965.00;;;5.30
29423;BMP180;16399;51.686;8.684;2023-02-01T02:21:10;99957.00;;;5.30
29423;BMP180;16399;51.686;8.684;2023-02-01T02:27:50;99958.00;;;5.40
29423;BMP180;16399;51.686;8.684;2023-02-01T02:34:46;99936.00;;;5.40
29423;BMP180;16399;51.686;8.684;2023-02-01T02:38:56;99930.00;;;5.40
29423;BMP180;16399;51.686;8.684;2023-02-01T02:44:35;99937.00;;;5.40
29423;BMP180;16399;51.686;8.684;2023-02-01T02:51:29;99921.00;;;5.40
29423;BMP180;16399;51.686;8.684;2023-02-01T02:54:37;99917.00;;;5.40
29423;BMP180;16399;51.686;8.684;2023-02-01T02:57:48;99922.00;;;5.40
29423;BMP180;16399;51.686;8.684;2023-02-01T03:01:08;99927.00;;;5.40
29423;BMP180;16399;51.686;8.684;2023-02-01T03:04:28;99916.00;;;5.40
29423;BMP180;16399;51.686;8.684;2023-02-01T03:11:11;99894.00;;;5.40
29423;BMP180;16399;51.686;8.684;2023-02-01T03:14:16;99893.00;;;5.40
29423;BMP180;16399;51.686;8.684;2023-02-01T03:17:22;99882.00;;;5.40
29423;BMP180;16399;51.686;8.684;2023-02-01T03:20:25;99874.00;;;5.50
29423;BMP180;16399;51.686;8.684;2023-02-01T03:23:31;99872.00;;;5.50
29423;BMP180;16399;51.686;8.684;2023-02-01T03:26:36;99873.00;;;5.50
29423;BMP180;16399;51.686;8.684;2023-02-01T03:29:59;99858.00;;;5.50
29423;BMP180;16399;51.686;8.684;2023-02-01T03:33:02;99881.00;;;5.50
29423;BMP180;16399;51.686;8.684;2023-02-01T03:39:20;99876.00;;;5.50
29423;BMP180;16399;51.686;8.684;2023-02-01T03:42:40;99870.00;;;5.50
29423;BMP180;16399;51.686;8.684;2023-02-01T03:45:45;99882.00;;;5.50
29423;BMP180;16399;51.686;8.684;2023-02-01T03:48:48;99860.00;;;5.50
29423;BMP180;16399;51.686;8.684;2023-02-01T03:51:52;99857.00;;;5.50
29423;BMP180;16399;51.686;8.684;2023-02-01T03:54:57;99851.00;;;5.50
29423;BMP180;16399;51.686;8.684;2023-02-01T03:58:02;99850.00;;;5.60
29423;BMP180;16399;51.686;8.684;2023-02-01T04:01:05;99836.00;;;5.60
29423;BMP180;16399;51.686;8.684;2023-02-01T04:04:07;99841.00;;;5.60
29423;BMP180;16399;51.686;8.684;2023-02-01T04:07:10;99853.00;;;5.60
29423;BMP180;16399;51.686;8.684;2023-02-01T04:10:13;99853.00;;;5.60
29423;BMP180;16399;51.686;8.684;2023-02-01T04:13:15;99849.00;;;5.60
29423;BMP180;16399;51.686;8.684;2023-02-01T04:16:18;99852.00;;;5.60
29423;BMP180;16399;51.686;8.684;2023-02-01T04:19:20;99852.00;;;5.60
29423;BMP180;16399;51.686;8.684;2023-02-01T04:22:22;99832.00;;;5.60
29423;BMP180;16399;51.686;8.684;2023-02-01T04:25:25;99839.00;;;5.60
29423;BMP180;16399;51.686;8.684;2023-02-01T04:28:27;99830.00;;;5.60
29423;BMP180;16399;51.686;8.684;2023-02-01T04:31:30;99826.00;;;5.70
29423;BMP180;16399;51.686;8.684;2023-02-01T04:34:32;99818.00;;;5.70
29423;BMP180;16399;51.686;8.684;2023-02-01T04:37:35;99821.00;;;5.60
29423;BMP180;16399;51.686;8.684;2023-02-01T04:40:37;99805.00;;;5.60
29423;BMP180;16399;51.686;8.684;2023-02-01T04:43:39;99807.00;;;5.60
29423;BMP180;16399;51.686;8.684;2023-02-01T04:46:42;99805.00;;;5.60
29423;BMP180;16399;51.686;8.684;2023-02-01T04:49:44;99794.00;;;5.60
29423;BMP180;16399;51.686;8.684;2023-02-01T04:52:46;99800.00;;;5.60
29423;BMP180;16399;51.686;8.684;2023-02-01T04:55:49;99793.00;;;5.60
29423;BMP180;16399;51.686;8.684;2023-02-01T04:58:51;99803.00;;;5.60
29423;BMP180;16399;51.686;8.684;2023-02-01T05:01:54;99804.00;;;5.60
29423;BMP180;16399;51.686;8.684;2023-02-01T05:04:56;99805.00;;;5.60
29423;BMP180;16399;51.686;8.684;2023-02-01T05:07:58;99793.00;;;5.60
29423;BMP180;16399;51.686;8.684;2023-02-01T05:11:01;99797.00;;;5.60
29423;BMP180;16399;51.686;8.684;2023-02-01T05:14:05;99794.00;;;5.50
29423;BMP180;16399;51.686;8.684;2023-02-01T05:17:08;99799.00;;;5.50
29423;BMP180;16399;51.686;8.684;2023-02-01T05:20:11;99802.00;;;5.50
29423;BMP180;16399;51.686;8.684;2023-02-01T05:23:13;99800.00;;;5.50
29423;BMP180;16399;51.686;8.684;2023-02-01T05:26:15;99788.00;;;5.50
29423;BMP180;16399;51.686;8.684;2023-02-01T05:29:18;99785.00;;;5.50
29423;BMP180;16399;51.686;8.684;2023-02-01T05:32:20;99800.00;;;5.50
29423;BMP180;16399;51.686;8.684;2023-02-01T05:35:22;99796.00;;;5.40
29423;BMP180;16399;51.686;8.684;2023-02-01T05:38:24;99800.00;;;5.40
29423;BMP180;16399;51.686;8.684;2023-02-01T05:41:27;99801.00;;;5.40
29423;BMP180;16399;51.686;8.684;2023-02-01T05:44:29;99789.00;;;5.40
29423;BMP180;16399;51.686;8.684;2023-02-01T05:47:31;99788.00;;;5.40
29423;BMP180;16399;51.686;8.684;2023-02-01T05:50:34;99794.00;;;5.40
29423;BMP180;16399;51.686;8.684;2023-02-01T05:53:36;99776.00;;;5.40
29423;BMP180;16399;51.686;8.684;2023-02-01T05:56:38;99783.00;;;5.40
29423;BMP180;16399;51.686;8.684;2023-02-01T05:59:42;99793.00;;;5.40
29423;BMP180;16399;51.686;8.684;2023-02-01T06:02:45;99791.00;;;5.40
29423;BMP180;16399;51.686;8.684;2023-02-01T06:05:48;99786.00;;;5.40
29423;BMP180;16399;51.686;8.684;2023-02-01T06:08:50;99763.00;;;5.40
29423;BMP180;16399;51.686;8.684;2023-02-01T06:11:52;99769.00;;;5.40
29423;BMP180;16399;51.686;8.684;2023-02-01T06:14:55;99762.00;;;5.40
29423;BMP180;16399;51.686;8.684;2023-02-01T06:17:57;99767.00;;;5.40
29423;BMP180;16399;51.686;8.684;2023-02-01T06:21:00;99766.00;;;5.50
29423;BMP180;16399;51.686;8.684;2023-02-01T06:24:02;99779.00;;;5.50
29423;BMP180;16399;51.686;8.684;2023-02-01T06:27:05;99786.00;;;5.50
29423;BMP180;16399;51.686;8.684;2023-02-01T06:30:08;99780.00;;;5.50
29423;BMP180;16399;51.686;8.684;2023-02-01T06:33:16;99763.00;;;5.50
29423;BMP180;16399;51.686;8.684;2023-02-01T06:36:16;99769.00;;;5.50
29423;BMP180;16399;51.686;8.684;2023-02-01T06:39:19;99768.00;;;5.60
29423;BMP180;16399;51.686;8.684;2023-02-01T06:42:22;99780.00;;;5.60
29423;BMP180;16399;51.686;8.684;2023-02-01T06:45:24;99771.00;;;5.60
29423;BMP180;16399;51.686;8.684;2023-02-01T06:48:26;99771.00;;;5.60
29423;BMP180;16399;51.686;8.684;2023-02-01T06:51:29;99788.00;;;5.60
29423;BMP180;16399;51.686;8.684;2023-02-01T06:54:31;99789.00;;;5.60
29423;BMP180;16399;51.686;8.684;2023-02-01T06:57:35;99788.00;;;5.60
29423;BMP180;16399;51.686;8.684;2023-02-01T07:00:37;99795.00;;;5.60
29423;BMP180;16399;51.686;8.684;2023-02-01T07:03:40;99804.00;;;5.60
29423;BMP180;16399;51.686;8.684;2023-02-01T07:06:42;99809.00;;;5.60
29423;BMP180;16399;51.686;8.684;2023-02-01T07:09:45;99819.00;;;5.60
29423;BMP180;16399;51.686;8.684;2023-02-01T07:12:47;99826.00;;;5.60
29423;BMP180;16399;51.686;8.684;2023-02-01T07:15:49;99834.00;;;5.60
29423;BMP180;16399;51.686;8.684;2023-02-01T07:18:52;99828.00;;;5.60
29423;BMP180;16399;51.686;8.684;2023-02-01T07:21:54;99839.00;;;5.60
29423;BMP180;16399;51.686;8.684;2023-02-01T07:24:57;99842.00;;;5.60
29423;BMP180;16399;51.686;8.684;2023-02-01T07:27:59;99840.00;;;5.60
29423;BMP180;16399;51.686;8.684;2023-02-01T07:31:12;99837.00;;;5.60
29423;BMP180;16399;51.686;8.684;2023-02-01T07:34:16;99837.00;;;5.60
29423;BMP180;16399;51.686;8.684;2023-02-01T07:37:18;99838.00;;;5.60
29423;BMP180;16399;51.686;8.684;2023-02-01T07:40:21;99855.00;;;5.60
29423;BMP180;16399;51.686;8.684;2023-02-01T07:43:25;99851.00;;;5.60
29423;BMP180;16399;51.686;8.684;2023-02-01T07:46:27;99837.00;;;5.60
29423;BMP180;16399;51.686;8.684;2023-02-01T07:49:30;99866.00;;;5.70
29423;BMP180;16399;51.686;8.684;2023-02-01T07:52:32;99858.00;;;5.70
29423;BMP180;16399;51.686;8.684;2023-02-01T07:55:39;99857.00;;;5.70
29423;BMP180;16399;51.686;8.684;2023-02-01T07:58:42;99861.00;;;5.70
29423;BMP180;16399;51.686;8.684;2023-02-01T08:01:44;99862.00;;;5.70
29423;BMP180;16399;51.686;8.684;2023-02-01T08:04:46;99864.00;;;5.70
29423;BMP180;16399;51.686;8.684;2023-02-01T08:07:49;99876.00;;;5.70
29423;BMP180;16399;51.686;8.684;2023-02-01T08:10:56;99880.00;;;5.70
29423;BMP180;16399;51.686;8.684;2023-02-01T08:13:56;99883.00;;;5.70
29423;BMP180;16399;51.686;8.684;2023-02-01T08:16:58;99872.00;;;5.70
29423;BMP180;16399;51.686;8.684;2023-02-01T08:20:00;99875.00;;;5.70
29423;BMP180;16399;51.686;8.684;2023-02-01T08:23:03;99878.00;;;5.70
29423;BMP180;16399;51.686;8.684;2023-02-01T08:29:19;99891.00;;;5.70
29423;BMP180;16399;51.686;8.684;2023-02-01T08:32:21;99904.00;;;5.80
29423;BMP180;16399;51.686;8.684;2023-02-01T08:35:24;99889.00;;;5.80
29423;BMP180;16399;51.686;8.684;2023-02-01T08:38:26;99890.00;;;5.80
29423;BMP180;16399;51.686;8.684;2023-02-01T08:41:29;99889.00;;;5.90
29423;BMP180;16399;51.686;8.684;2023-02-01T08:44:32;99876.00;;;5.90
29423;BMP180;16399;51.686;8.684;2023-02-01T08:47:35;99874.00;;;6.00
29423;BMP180;16399;51.686;8.684;2023-02-01T08:50:37;99886.00;;;6.00
29423;BMP180;16399;51.686;8.684;2023-02-01T08:53:40;99881.00;;;6.00
29423;BMP180;16399;51.686;8.684;2023-02-01T08:56:43;99884.00;;;6.10
29423;BMP180;16399;51.686;8.684;2023-02-01T08:59:45;99878.00;;;6.10
29423;BMP180;16399;51.686;8.684;2023-02-01T09:02:47;99862.00;;;6.20
29423;BMP180;16399;51.686;8.684;2023-02-01T09:05:49;99869.00;;;6.20
29423;BMP180;16399;51.686;8.684;2023-02-01T09:08:52;99874.00;;;6.20
29423;BMP180;16399;51.686;8.684;2023-02-01T09:11:54;99871.00;;;6.30
29423;BMP180;16399;51.686;8.684;2023-02-01T09:14:57;99867.00;;;6.30
29423;BMP180;16399;51.686;8.684;2023-02-01T09:18:00;99883.00;;;6.30
29423;BMP180;16399;51.686;8.684;2023-02-01T09:21:07;99880.00;;;6.40
29423;BMP180;16399;51.686;8.684;2023-02-01T09:24:13;99887.00;;;6.40
29423;BMP180;16399;51.686;8.684;2023-02-01T09:27:15;99878.00;;;6.40
29423;BMP180;16399;51.686;8.684;2023-02-01T09:30:17;99874.00;;;6.30
29423;BMP180;16399;51.686;8.684;2023-02-01T09:33:20;99879.00;;;6.30
29423;BMP180;16399;51.686;8.684;2023-02-01T09:36:24;99879.00;;;6.30
29423;BMP180;16399;51.686;8.684;2023-02-01T09:39:26;99886.00;;;6.30
29423;BMP180;16399;51.686;8.684;2023-02-01T09:45:51;99883.00;;;6.30
29423;BMP180;16399;51.686;8.684;2023-02-01T09:48:55;99883.00;;;6.30
29423;BMP180;16399;51.686;8.684;2023-02-01T09:52:01;99886.00;;;6.30
29423;BMP180;16399;51.686;8.684;2023-02-01T09:55:40;99885.00;;;6.20
29423;BMP180;16399;51.686;8.684;2023-02-01T10:01:26;99882.00;;;6.20
29423;BMP180;16399;51.686;8.684;2023-02-01T10:04:30;99869.00;;;6.20
29423;BMP180;16399;51.686;8.684;2023-02-01T10:07:56;99873.00;;;6.20
29423;BMP180;16399;51.686;8.684;2023-02-01T10:10:58;99883.00;;;6.20
29423;BMP180;16399;51.686;8.684;2023-02-01T10:14:08;99881.00;;;6.20
29423;BMP180;16399;51.686;8.684;2023-02-01T10:17:17;99877.00;;;6.20
29423;BMP180;16399;51.686;8.684;2023-02-01T10:23:46;99882.00;;;6.20
29423;BMP180;16399;51.686;8.684;2023-02-01T10:26:54;99878.00;;;6.30
29423;BMP180;16399;51.686;8.684;2023-02-01T10:30:04;99878.00;;;6.30
29423;BMP180;16399;51.686;8.684;2023-02-01T10:37:18;99866.00;;;6.30
29423;BMP180;16399;51.686;8.684;2023-02-01T10:39:26;99874.00;;;6.40
29423;BMP180;16399;51.686;8.684;2023-02-01T10:42:29;99862.00;;;6.40
29423;BMP180;16399;51.686;8.684;2023-02-01T10:45:33;99874.00;;;6.40
29423;BMP180;16399;51.686;8.684;2023-02-01T10:48:37;99859.00;;;6.50
29423;BMP180;16399;51.686;8.684;2023-02-01T10:52:00;99858.00;;;6.50
29423;BMP180;16399;51.686;8.684;2023-02-01T10:55:31;99855.00;;;6.50
29423;BMP180;16399;51.686;8.684;2023-02-01T10:58:33;99839.00;;;6.50
29423;BMP180;16399;51.686;8.684;2023-02-01T11:01:42;99835.00;;;6.50
29423;BMP180;16399;51.686;8.684;2023-02-01T11:04:46;99831.00;;;6.50
29423;BMP180;16399;51.686;8.684;2023-02-01T11:07:51;99838.00;;;6.50
29423;BMP180;16399;51.686;8.684;2023-02-01T11:11:01;99840.00;;;6.50
29423;BMP180;16399;51.686;8.684;2023-02-01T11:14:13;99850.00;;;6.60
29423;BMP180;16399;51.686;8.684;2023-02-01T11:17:24;99830.00;;;6.60
29423;BMP180;16399;51.686;8.684;2023-02-01T11:23:43;99828.00;;;6.60
29423;BMP180;16399;51.686;8.684;2023-02-01T11:26:46;99827.00;;;6.60
29423;BMP180;16399;51.686;8.684;2023-02-01T11:29:50;99822.00;;;6.60
29423;BMP180;16399;51.686;8.684;2023-02-01T11:32:53;99809.00;;;6.60
29423;BMP180;16399;51.686;8.684;2023-02-01T11:35:57;99818.00;;;6.60
29423;BMP180;16399;51.686;8.684;2023-02-01T11:42:18;99801.00;;;6.60
29423;BMP180;16399;51.686;8.684;2023-02-01T11:45:25;99780.00;;;6.70
29423;BMP180;16399;51.686;8.684;2023-02-01T11:48:32;99775.00;;;6.70
29423;BMP180;16399;51.686;8.684;2023-02-01T11:51:46;99772.00;;;6.70
29423;BMP180;16399;51.686;8.684;2023-02-01T11:55:04;99782.00;;;6.80
29423;BMP180;16399;51.686;8.684;2023-02-01T12:04:56;99767.00;;;6.70
29423;BMP180;16399;51.686;8.684;2023-02-01T12:08:09;99760.00;;;6.70
29423;BMP180;16399;51.686;8.684;2023-02-01T12:11:23;99761.00;;;6.60
29423;BMP180;16399;51.686;8.684;2023-02-01T12:17:58;99759.00;;;6.50
29423;BMP180;16399;51.686;8.684;2023-02-01T12:28:05;99731.00;;;6.40
29423;BMP180;16399;51.686;8.684;2023-02-01T12:31:25;99733.00;;;6.40
29423;BMP180;16399;51.686;8.684;2023-02-01T12:34:46;99720.00;;;6.30
29423;BMP180;16399;51.686;8.684;2023-02-01T12:37:57;99700.00;;;6.30
29423;BMP180;16399;51.686;8.684;2023-02-01T12:41:17;99704.00;;;6.20
29423;BMP180;16399;51.686;8.684;2023-02-01T12:44:27;99689.00;;;6.10
29423;BMP180;16399;51.686;8.684;2023-02-01T12:47:52;99692.00;;;6.00
29423;BMP180;16399;51.686;8.684;2023-02-01T12:51:07;99672.00;;;5.90
29423;BMP180;16399;51.686;8.684;2023-02-01T12:54:34;99682.00;;;5.90
29423;BMP180;16399;51.686;8.684;2023-02-01T12:57:35;99655.00;;;5.90
29423;BMP180;16399;51.686;8.684;2023-02-01T13:00:40;99664.00;;;5.80
29423;BMP180;16399;51.686;8.684;2023-02-01T13:03:50;99671.00;;;5.80
29423;BMP180;16399;51.686;8.684;2023-02-01T13:06:54;99663.00;;;5.80
29423;BMP180;16399;51.686;8.684;2023-02-01T13:10:12;99660.00;;;5.70
29423;BMP180;16399;51.686;8.684;2023-02-01T13:13:20;99660.00;;;5.60
29423;BMP180;16399;51.686;8.684;2023-02-01T13:16:43;99684.00;;;5.60
29423;BMP180;16399;51.686;8.684;2023-02-01T13:20:06;99677.00;;;5.50
29423;BMP180;16399;51.686;8.684;2023-02-01T13:23:22;99673.00;;;5.40
29423;BMP180;16399;51.686;8.684;2023-02-01T13:26:19;99680.00;;;5.40
29423;BMP180;16399;51.686;8.684;2023-02-01T13:29:23;99685.00;;;5.40
29423;BMP180;16399;51.686;8.684;2023-02-01T13:32:38;99670.00;;;5.40
29423;BMP180;16399;51.686;8.684;2023-02-01T13:35:45;99660.00;;;5.40
29423;BMP180;16399;51.686;8.684;2023-02-01T13:42:05;99661.00;;;5.40
29423;BMP180;16399;51.686;8.684;2023-02-01T13:45:22;99665.00;;;5.40
29423;BMP180;16399;51.686;8.684;2023-02-01T13:49:01;99675.00;;;5.40
29423;BMP180;16399;51.686;8.684;2023-02-01T13:51:42;99673.00;;;5.40
29423;BMP180;16399;51.686;8.684;2023-02-01T13:54:45;99672.00;;;5.50
29423;BMP180;16399;51.686;8.684;2023-02-01T13:57:58;99681.00;;;5.50
29423;BMP180;16399;51.686;8.684;2023-02-01T14:04:46;99663.00;;;5.60
29423;BMP180;16399;51.686;8.684;2023-02-01T14:08:12;99681.00;;;5.60
29423;BMP180;16399;51.686;8.684;2023-02-01T14:11:42;99672.00;;;5.60
29423;BMP180;16399;51.686;8.684;2023-02-01T14:14:44;99689.00;;;5.60
29423;BMP180;16399;51.686;8.684;2023-02-01T14:17:47;99681.00;;;5.60
29423;BMP180;16399;51.686;8.684;2023-02-01T14:20:49;99683.00;;;5.60
29423;BMP180;16399;51.686;8.684;2023-02-01T14:27:19;99678.00;;;5.70
29423;BMP180;16399;51.686;8.684;2023-02-01T14:30:23;99677.00;;;5.80
29423;BMP180;16399;51.686;8.684;2023-02-01T14:33:27;99656.00;;;5.80
29423;BMP180;16399;51.686;8.684;2023-02-01T14:36:47;99658.00;;;5.90
29423;BMP180;16399;51.686;8.684;2023-02-01T14:42:55;99664.00;;;5.90
29423;BMP180;16399;51.686;8.684;2023-02-01T14:45:58;99663.00;;;6.00
29423;BMP180;16399;51.686;8.684;2023-02-01T14:49:01;99648.00;;;6.00
29423;BMP180;16399;51.686;8.684;2023-02-01T14:52:06;99652.00;;;6.00
29423;BMP180;16399;51.686;8.684;2023-02-01T14:55:24;99650.00;;;6.10
29423;BMP180;16399;51.686;8.684;2023-02-01T15:01:50;99677.00;;;6.20
29423;BMP180;16399;51.686;8.684;2023-02-01T15:04:56;99665.00;;;6.20
29423;BMP180;16399;51.686;8.684;2023-02-01T15:08:04;99655.00;;;6.20
29423;BMP180;16399;51.686;8.684;2023-02-01T15:11:06;99652.00;;;6.20
29423;BMP180;16399;51.686;8.684;2023-02-01T15:14:14;99664.00;;;6.20
29423;BMP180;16399;51.686;8.684;2023-02-01T15:17:22;99633.00;;;6.30
29423;BMP180;16399;51.686;8.684;2023-02-01T15:20:32;99641.00;;;6.30
29423;BMP180;16399;51.686;8.684;2023-02-01T15:23:30;99632.00;;;6.30
29423;BMP180;16399;51.686;8.684;2023-02-01T15:26:32;99592.00;;;6.30
29423;BMP180;16399;51.686;8.684;2023-02-01T15:29:35;99663.00;;;6.30
29423;BMP180;16399;51.686;8.684;2023-02-01T15:32:39;99681.00;;;6.30
29423;BMP180;16399;51.686;8.684;2023-02-01T15:42:15;99715.00;;;6.40
29423;BMP180;16399;51.686;8.684;2023-02-01T15:45:27;99731.00;;;6.40
29423;BMP180;16399;51.686;8.684;2023-02-01T15:48:36;99726.00;;;6.30
29423;BMP180;16399;51.686;8.684;2023-02-01T15:51:34;99714.00;;;6.30
29423;BMP180;16399;51.686;8.684;2023-02-01T15:54:52;99697.00;;;6.30
29423;BMP180;16399;51.686;8.684;2023-02-01T15:57:55;99715.00;;;6.30
29423;BMP180;16399;51.686;8.684;2023-02-01T16:00:59;99721.00;;;6.30
29423;BMP180;16399;51.686;8.684;2023-02-01T16:04:24;99720.00;;;6.30
29423;BMP180;16399;51.686;8.684;2023-02-01T16:07:29;99728.00;;;6.20
29423;BMP180;16399;51.686;8.684;2023-02-01T16:10:38;99739.00;;;6.20
29423;BMP180;16399;51.686;8.684;2023-02-01T16:13:37;99740.00;;;6.20
29423;BMP180;16399;51.686;8.684;2023-02-01T16:16:39;99752.00;;;6.10
29423;BMP180;16399;51.686;8.684;2023-02-01T16:19:42;99783.00;;;6.10
29423;BMP180;16399;51.686;8.684;2023-02-01T16:22:44;99771.00;;;6.00
29423;BMP180;16399;51.686;8.684;2023-02-01T16:25:46;99771.00;;;5.90
29423;BMP180;16399;51.686;8.684;2023-02-01T16:28:48;99756.00;;;5.80
29423;BMP180;16399;51.686;8.684;2023-02-01T16:31:51;99768.00;;;5.70
29423;BMP180;16399;51.686;8.684;2023-02-01T16:34:54;99771.00;;;5.70
29423;BMP180;16399;51.686;8.684;2023-02-01T16:37:58;99818.00;;;5.50
29423;BMP180;16399;51.686;8.684;2023-02-01T16:41:01;99795.00;;;5.20
29423;BMP180;16399;51.686;8.684;2023-02-01T16:44:04;99808.00;;;5.10
29423;BMP180;16399;51.686;8.684;2023-02-01T16:47:18;99811.00;;;5.10
29423;BMP180;16399;51.686;8.684;2023-02-01T16:50:23;99813.00;;;5.00
29423;BMP180;16399;51.686;8.684;2023-02-01T16:53:28;99819.00;;;5.00
29423;BMP180;16399;51.686;8.684;2023-02-01T16:56:31;99818.00;;;5.10
29423;BMP180;16399;51.686;8.684;2023-02-01T16:59:34;99856.00;;;5.10
29423;BMP180;16399;51.686;8.684;2023-02-01T17:02:36;99842.00;;;5.10
29423;BMP180;16399;51.686;8.684;2023-02-01T17:05:39;99810.00;;;5.00
29423;BMP180;16399;51.686;8.684;2023-02-01T17:08:43;99826.00;;;4.90
29423;BMP180;16399;51.686;8.684;2023-02-01T17:11:45;99811.00;;;4.80
29423;BMP180;16399;51.686;8.684;2023-02-01T17:14:48;99825.00;;;4.60
29423;BMP180;16399;51.686;8.684;2023-02-01T17:17:51;99813.00;;;4.50
29423;BMP180;16399;51.686;8.684;2023-02-01T17:20:55;99811.00;;;4.40
29423;BMP180;16399;51.686;8.684;2023-02-01T17:23:57;99808.00;;;4.30
29423;BMP180;16399;51.686;8.684;2023-02-01T17:27:01;99809.00;;;4.30
29423;BMP180;16399;51.686;8.684;2023-02-01T17:30:05;99828.00;;;4.40
29423;BMP180;16399;51.686;8.684;2023-02-01T17:33:22;99836.00;;;4.50
29423;BMP180;16399;51.686;8.684;2023-02-01T17:36:24;99841.00;;;4.60
29423;BMP180;16399;51.686;8.684;2023-02-01T17:39:27;99829.00;;;4.80
29423;BMP180;16399;51.686;8.684;2023-02-01T17:42:47;99844.00;;;4.90
29423;BMP180;16399;51.686;8.684;2023-02-01T17:46:00;99844.00;;;5.00
29423;BMP180;16399;51.686;8.684;2023-02-01T17:48:58;99865.00;;;5.00
29423;BMP180;16399;51.686;8.684;2023-02-01T17:52:01;99842.00;;;5.00
29423;BMP180;16399;51.686;8.684;2023-02-01T17:55:13;99825.00;;;5.00
29423;BMP180;16399;51.686;8.684;2023-02-01T17:58:11;99837.00;;;5.00
29423;BMP180;16399;51.686;8.684;2023-02-01T18:01:19;99848.00;;;5.00
29423;BMP180;16399;51.686;8.684;2023-02-01T18:04:21;99872.00;;;4.90
29423;BMP180;16399;51.686;8.684;2023-02-01T18:07:24;99867.00;;;4.70
29423;BMP180;16399;51.686;8.684;2023-02-01T18:10:26;99881.00;;;4.60
29423;BMP180;16399;51.686;8.684;2023-02-01T18:13:29;99871.00;;;4.60
29423;BMP180;16399;51.686;8.684;2023-02-01T18:16:33;99876.00;;;4.60
29423;BMP180;16399;51.686;8.684;2023-02-01T18:19:37;99881.00;;;4.60
29423;BMP180;16399;51.686;8.684;2023-02-01T18:22:39;99866.00;;;4.50
29423;BMP180;16399;51.686;8.684;2023-02-01T18:25:42;99877.00;;;4.50
29423;BMP180;16399;51.686;8.684;2023-02-01T18:28:45;99875.00;;;4.50
29423;BMP180;16399;51.686;8.684;2023-02-01T18:31:48;99875.00;;;4.50
29423;BMP180;16399;51.686;8.684;2023-02-01T18:34:51;99867.00;;;4.50
29423;BMP180;16399;51.686;8.684;2023-02-01T18:37:53;99866.00;;;4.60
29423;BMP180;16399;51.686;8.684;2023-02-01T18:40:56;99875.00;;;4.70
29423;BMP180;16399;51.686;8.684;2023-02-01T18:43:58;99870.00;;;4.70
29423;BMP180;16399;51.686;8.684;2023-02-01T18:47:01;99866.00;;;4.80
29423;BMP180;16399;51.686;8.684;2023-02-01T18:50:03;99870.00;;;4.80
29423;BMP180;16399;51.686;8.684;2023-02-01T18:53:10;99866.00;;;4.80
29423;BMP180;16399;51.686;8.684;2023-02-01T18:56:12;99871.00;;;4.80
29423;BMP180;16399;51.686;8.684;2023-02-01T18:59:14;99877.00;;;4.70
29423;BMP180;16399;51.686;8.684;2023-02-01T19:02:18;99901.00;;;4.60
29423;BMP180;16399;51.686;8.684;2023-02-01T19:05:21;99879.00;;;4.60
29423;BMP180;16399;51.686;8.684;2023-02-01T19:08:24;99890.00;;;4.50
29423;BMP180;16399;51.686;8.684;2023-02-01T19:11:26;99886.00;;;4.50
29423;BMP180;16399;51.686;8.684;2023-02-01T19:14:28;99899.00;;;4.50
29423;BMP180;16399;51.686;8.684;2023-02-01T19:17:31;99907.00;;;4.50
29423;BMP180;16399;51.686;8.684;2023-02-01T19:20:33;99899.00;;;4.60
29423;BMP180;16399;51.686;8.684;2023-02-01T19:23:37;99903.00;;;4.70